sensor_id;sensor_type;location;lat;lon;timestamp;temperature;humidity
13970;DHT22;7057;49.984;8.404;2023-02-04T00:00:09;10.00;99.90
13970;DHT22;7057;49.984;8.404;2023-02-04T00:02:38;10.00;99.90
13970;DHT22;7057;49.984;8.404;2023-02-04T00:05:06;10.00;99.90
13970;DHT22;7057;49.984;8.404;2023-02-04T00:07:35;9.90;99.90
13970;DHT22;7057;49.984;8.404;2023-02-04T00:10:03;9.80;99.90
13970;DHT22;7057;49.984;8.404;2023-02-04T00:12:31;9.80;99.90
13970;DHT22;7057;49.984;8.404;2023-02-04T00:14:59;9.80;99.90
13970;DHT22;7057;49.984;8.404;2023-02-04T00:17:26;9.80;99.90
13970;DHT22;7057;49.984;8.404;2023-02-04T00:19:53;9.80;99.90
13970;DHT22;7057;49.984;8.404;2023-02-04T00:22:20;9.70;99.90
13970;DHT22;7057;49.984;8.404;2023-02-04T00:24:49;9.70;99.90
13970;DHT22;7057;49.984;8.404;2023-02-04T00:27:16;9.70;99.90
13970;DHT22;7057;49.984;8.404;2023-02-04T00:29:43;9.70;99.90
13970;DHT22;7057;49.984;8.404;2023-02-04T00:32:10;9.70;99.90
13970;DHT22;7057;49.984;8.404;2023-02-04T00:34:38;9.60;99.90
13970;DHT22;7057;49.984;8.404;2023-02-04T00:37:05;9.60;99.90
13970;DHT22;7057;49.984;8.404;2023-02-04T00:39:32;9.60;99.90
13970;DHT22;7057;49.984;8.404;2023-02-04T00:42:00;9.60;99.90
13970;DHT22;7057;49.984;8.404;2023-02-04T00:44:27;9.60;99.90
13970;DHT22;7057;49.984;8.404;2023-02-04T00:46:55;9.60;99.90
13970;DHT22;7057;49.984;8.404;2023-02-04T00:49:22;9.60;99.90
13970;DHT22;7057;49.984;8.404;2023-02-04T00:51:49;9.60;99.90
13970;DHT22;7057;49.984;8.404;2023-02-04T00:54:17;9.60;99.90
13970;DHT22;7057;49.984;8.404;2023-02-04T00:56:44;9.60;99.90
13970;DHT22;7057;49.984;8.404;2023-02-04T00:59:13;9.50;99.90
13970;DHT22;7057;49.984;8.404;2023-02-04T01:01:40;9.50;99.90
13970;DHT22;7057;49.984;8.404;2023-02-04T01:04:07;9.50;99.90
13970;DHT22;7057;49.984;8.404;2023-02-04T01:06:34;9.50;99.90
13970;DHT22;7057;49.984;8.404;2023-02-04T01:09:03;9.40;99.90
13970;DHT22;7057;49.984;8.404;2023-02-04T01:11:30;9.40;99.90
13970;DHT22;7057;49.984;8.404;2023-02-04T01:13:58;9.30;99.90
13970;DHT22;7057;49.984;8.404;2023-02-04T01:16:26;9.30;99.90
13970;DHT22;7057;49.984;8.404;2023-02-04T01:18:54;9.30;99.90
13970;DHT22;7057;49.984;8.404;2023-02-04T01:21:21;9.20;99.90
13970;DHT22;7057;49.984;8.404;2023-02-04T01:23:48;9.20;99.90
13970;DHT22;7057;49.984;8.404;2023-02-04T01:26:17;9.20;99.90
13970;DHT22;7057;49.984;8.404;2023-02-04T01:28:44;9.20;99.90
13970;DHT22;7057;49.984;8.404;2023-02-04T01:31:11;9.10;99.90
13970;DHT22;7057;49.984;8.404;2023-02-04T01:33:40;9.10;99.90
13970;DHT22;7057;49.984;8.404;2023-02-04T01:36:08;9.20;99.90
13970;DHT22;7057;49.984;8.404;2023-02-04T01:38:35;9.20;99.90
13970;DHT22;7057;49.984;8.404;2023-02-04T01:41:03;9.20;99.90
13970;DHT22;7057;49.984;8.404;2023-02-04T01:43:31;9.20;99.90
13970;DHT22;7057;49.984;8.404;2023-02-04T01:45:58;9.20;99.90
13970;DHT22;7057;49.984;8.404;2023-02-04T01:48:27;9.20;99.90
13970;DHT22;7057;49.984;8.404;2023-02-04T01:51:01;9.20;99.90
13970;DHT22;7057;49.984;8.404;2023-02-04T01:53:30;9.20;99.90
13970;DHT22;7057;49.984;8.404;2023-02-04T01:55:58;9.10;99.90
13970;DHT22;7057;49.984;8.404;2023-02-04T01:58:27;9.10;99.90
13970;DHT22;7057;49.984;8.404;2023-02-04T02:00:55;9.10;99.90
13970;DHT22;7057;49.984;8.404;2023-02-04T02:03:22;9.20;99.90
13970;DHT22;7057;49.984;8.404;2023-02-04T02:05:51;9.20;99.90
13970;DHT22;7057;49.984;8.404;2023-02-04T02:08:21;9.10;99.90
13970;DHT22;7057;49.984;8.404;2023-02-04T02:10:49;9.00;99.90
13970;DHT22;7057;49.984;8.404;2023-02-04T02:13:18;9.00;99.90
13970;DHT22;7057;49.984;8.404;2023-02-04T02:15:46;9.00;99.90
13970;DHT22;7057;49.984;8.404;2023-02-04T02:18:13;9.00;99.90
13970;DHT22;7057;49.984;8.404;2023-02-04T02:20:42;9.00;99.90
13970;DHT22;7057;49.984;8.404;2023-02-04T02:23:15;9.00;99.90
13970;DHT22;7057;49.984;8.404;2023-02-04T02:25:46;9.10;99.90
13970;DHT22;7057;49.984;8.404;2023-02-04T02:28:16;9.00;99.90
13970;DHT22;7057;49.984;8.404;2023-02-04T02:30:45;9.00;99.90
13970;DHT22;7057;49.984;8.404;2023-02-04T02:33:16;9.00;99.90
13970;DHT22;7057;49.984;8.404;2023-02-04T02:35:45;9.00;99.90
13970;DHT22;7057;49.984;8.404;2023-02-04T02:38:13;8.90;99.90
13970;DHT22;7057;49.984;8.404;2023-02-04T02:40:41;8.90;99.90
13970;DHT22;7057;49.984;8.404;2023-02-04T02:43:13;8.90;99.90
13970;DHT22;7057;49.984;8.404;2023-02-04T02:45:41;8.90;99.90
13970;DHT22;7057;49.984;8.404;2023-02-04T02:48:09;8.80;99.90
13970;DHT22;7057;49.984;8.404;2023-02-04T02:50:37;8.80;99.90
13970;DHT22;7057;49.984;8.404;2023-02-04T02:53:08;8.80;99.90
13970;DHT22;7057;49.984;8.404;2023-02-04T02:55:36;8.80;99.90
13970;DHT22;7057;49.984;8.404;2023-02-04T02:58:04;8.70;99.90
13970;DHT22;7057;49.984;8.404;2023-02-04T03:00:32;8.70;99.90
13970;DHT22;7057;49.984;8.404;2023-02-04T03:03:03;8.70;99.90
13970;DHT22;7057;49.984;8.404;2023-02-04T03:05:34;8.70;99.90
13970;DHT22;7057;49.984;8.404;2023-02-04T03:08:03;8.70;99.90
13970;DHT22;7057;49.984;8.404;2023-02-04T03:10:30;8.60;99.90
13970;DHT22;7057;49.984;8.404;2023-02-04T03:12:58;8.60;99.90
13970;DHT22;7057;49.984;8.404;2023-02-04T03:15:26;8.60;99.90
13970;DHT22;7057;49.984;8.404;2023-02-04T03:17:54;8.60;99.90
13970;DHT22;7057;49.984;8.404;2023-02-04T03:20:23;8.60;99.90
13970;DHT22;7057;49.984;8.404;2023-02-04T03:22:51;8.60;99.90
13970;DHT22;7057;49.984;8.404;2023-02-04T03:25:19;8.70;99.90
13970;DHT22;7057;49.984;8.404;2023-02-04T03:27:49;8.60;99.90
13970;DHT22;7057;49.984;8.404;2023-02-04T03:30:19;8.60;99.90
13970;DHT22;7057;49.984;8.404;2023-02-04T03:32:46;8.60;99.90
13970;DHT22;7057;49.984;8.404;2023-02-04T03:35:15;8.40;99.90
13970;DHT22;7057;49.984;8.404;2023-02-04T03:37:43;8.70;99.90
13970;DHT22;7057;49.984;8.404;2023-02-04T03:40:11;8.70;99.90
13970;DHT22;7057;49.984;8.404;2023-02-04T03:42:38;8.70;99.90
13970;DHT22;7057;49.984;8.404;2023-02-04T03:45:06;8.60;99.90
13970;DHT22;7057;49.984;8.404;2023-02-04T03:47:34;8.60;99.90
13970;DHT22;7057;49.984;8.404;2023-02-04T03:50:01;8.60;99.90
13970;DHT22;7057;49.984;8.404;2023-02-04T03:52:29;8.50;99.90
13970;DHT22;7057;49.984;8.404;2023-02-04T03:54:56;8.50;99.90
13970;DHT22;7057;49.984;8.404;2023-02-04T03:57:24;8.50;99.90
13970;DHT22;7057;49.984;8.404;2023-02-04T03:59:51;8.50;99.90
13970;DHT22;7057;49.984;8.404;2023-02-04T04:02:18;8.50;99.90
13970;DHT22;7057;49.984;8.404;2023-02-04T04:04:45;8.40;99.90
13970;DHT22;7057;49.984;8.404;2023-02-04T04:07:12;8.50;99.90
13970;DHT22;7057;49.984;8.404;2023-02-04T04:09:41;8.50;99.90
13970;DHT22;7057;49.984;8.404;2023-02-04T04:12:08;8.50;99.90
13970;DHT22;7057;49.984;8.404;2023-02-04T04:14:35;8.40;99.90
13970;DHT22;7057;49.984;8.404;2023-02-04T04:17:02;8.40;99.90
13970;DHT22;7057;49.984;8.404;2023-02-04T04:19:30;8.30;99.90
13970;DHT22;7057;49.984;8.404;2023-02-04T04:21:58;8.40;99.90
13970;DHT22;7057;49.984;8.404;2023-02-04T04:24:25;8.30;99.90
13970;DHT22;7057;49.984;8.404;2023-02-04T04:26:53;8.40;99.90
13970;DHT22;7057;49.984;8.404;2023-02-04T04:29:20;8.30;99.90
13970;DHT22;7057;49.984;8.404;2023-02-04T04:31:48;8.30;99.90
13970;DHT22;7057;49.984;8.404;2023-02-04T04:34:15;8.30;99.90
13970;DHT22;7057;49.984;8.404;2023-02-04T04:36:42;8.30;99.90
13970;DHT22;7057;49.984;8.404;2023-02-04T04:39:09;8.20;99.90
13970;DHT22;7057;49.984;8.404;2023-02-04T04:41:36;8.10;99.90
13970;DHT22;7057;49.984;8.404;2023-02-04T04:44:05;8.10;99.90
13970;DHT22;7057;49.984;8.404;2023-02-04T04:46:32;8.10;99.90
13970;DHT22;7057;49.984;8.404;2023-02-04T04:48:59;8.10;99.90
13970;DHT22;7057;49.984;8.404;2023-02-04T04:51:27;8.10;99.90
13970;DHT22;7057;49.984;8.404;2023-02-04T04:53:56;8.10;99.90
13970;DHT22;7057;49.984;8.404;2023-02-04T04:56:23;8.10;99.90
13970;DHT22;7057;49.984;8.404;2023-02-04T04:58:51;8.10;99.90
13970;DHT22;7057;49.984;8.404;2023-02-04T05:01:19;8.10;99.90
13970;DHT22;7057;49.984;8.404;2023-02-04T05:03:47;8.10;99.90
13970;DHT22;7057;49.984;8.404;2023-02-04T05:06:14;8.10;99.90
13970;DHT22;7057;49.984;8.404;2023-02-04T05:08:42;8.10;99.90
13970;DHT22;7057;49.984;8.404;2023-02-04T05:11:09;8.00;99.90
13970;DHT22;7057;49.984;8.404;2023-02-04T05:13:36;8.00;99.90
13970;DHT22;7057;49.984;8.404;2023-02-04T05:16:04;8.00;99.90
13970;DHT22;7057;49.984;8.404;2023-02-04T05:18:32;7.90;99.90
13970;DHT22;7057;49.984;8.404;2023-02-04T05:20:59;7.90;99.90
13970;DHT22;7057;49.984;8.404;2023-02-04T05:23:26;7.90;99.90
13970;DHT22;7057;49.984;8.404;2023-02-04T05:25:54;7.90;99.90
13970;DHT22;7057;49.984;8.404;2023-02-04T05:28:21;7.80;99.90
13970;DHT22;7057;49.984;8.404;2023-02-04T05:30:48;7.80;99.90
13970;DHT22;7057;49.984;8.404;2023-02-04T05:33:15;7.70;99.90
13970;DHT22;7057;49.984;8.404;2023-02-04T05:35:44;7.70;99.90
13970;DHT22;7057;49.984;8.404;2023-02-04T05:38:11;7.60;99.90
13970;DHT22;7057;49.984;8.404;2023-02-04T05:40:38;7.60;99.90
13970;DHT22;7057;49.984;8.404;2023-02-04T05:43:05;7.60;99.90
13970;DHT22;7057;49.984;8.404;2023-02-04T05:45:32;7.60;99.90
13970;DHT22;7057;49.984;8.404;2023-02-04T05:47:59;7.50;99.90
13970;DHT22;7057;49.984;8.404;2023-02-04T05:50:27;7.50;99.90
13970;DHT22;7057;49.984;8.404;2023-02-04T05:52:55;7.50;99.90
13970;DHT22;7057;49.984;8.404;2023-02-04T05:55:22;7.40;99.90
13970;DHT22;7057;49.984;8.404;2023-02-04T05:57:49;7.50;99.90
13970;DHT22;7057;49.984;8.404;2023-02-04T06:00:17;7.50;99.90
13970;DHT22;7057;49.984;8.404;2023-02-04T06:02:44;7.50;99.90
13970;DHT22;7057;49.984;8.404;2023-02-04T06:05:11;7.60;99.90
13970;DHT22;7057;49.984;8.404;2023-02-04T06:07:38;7.60;99.90
13970;DHT22;7057;49.984;8.404;2023-02-04T06:10:08;7.70;99.90
13970;DHT22;7057;49.984;8.404;2023-02-04T06:12:35;7.70;99.90
13970;DHT22;7057;49.984;8.404;2023-02-04T06:15:02;7.80;99.90
13970;DHT22;7057;49.984;8.404;2023-02-04T06:17:30;7.80;99.90
13970;DHT22;7057;49.984;8.404;2023-02-04T06:19:57;7.80;99.90
13970;DHT22;7057;49.984;8.404;2023-02-04T06:22:24;7.80;99.90
13970;DHT22;7057;49.984;8.404;2023-02-04T06:24:51;7.80;99.90
13970;DHT22;7057;49.984;8.404;2023-02-04T06:27:20;7.80;99.90
13970;DHT22;7057;49.984;8.404;2023-02-04T06:29:49;7.80;99.90
13970;DHT22;7057;49.984;8.404;2023-02-04T06:32:16;7.90;99.90
13970;DHT22;7057;49.984;8.404;2023-02-04T06:34:44;7.80;99.90
13970;DHT22;7057;49.984;8.404;2023-02-04T06:37:11;7.80;99.90
13970;DHT22;7057;49.984;8.404;2023-02-04T06:39:40;7.80;99.90
13970;DHT22;7057;49.984;8.404;2023-02-04T06:42:08;7.80;99.90
13970;DHT22;7057;49.984;8.404;2023-02-04T06:44:36;7.80;99.90
13970;DHT22;7057;49.984;8.404;2023-02-04T06:47:03;7.80;99.90
13970;DHT22;7057;49.984;8.404;2023-02-04T06:49:30;7.80;99.90
13970;DHT22;7057;49.984;8.404;2023-02-04T06:51:58;7.80;99.90
13970;DHT22;7057;49.984;8.404;2023-02-04T06:54:25;7.80;99.90
13970;DHT22;7057;49.984;8.404;2023-02-04T06:56:52;7.80;99.90
13970;DHT22;7057;49.984;8.404;2023-02-04T06:59:19;7.80;99.90
13970;DHT22;7057;49.984;8.404;2023-02-04T07:01:47;7.90;99.90
13970;DHT22;7057;49.984;8.404;2023-02-04T07:04:15;7.90;99.90
13970;DHT22;7057;49.984;8.404;2023-02-04T07:06:42;7.90;99.90
13970;DHT22;7057;49.984;8.404;2023-02-04T07:09:09;7.90;99.90
13970;DHT22;7057;49.984;8.404;2023-02-04T07:11:36;8.00;99.90
13970;DHT22;7057;49.984;8.404;2023-02-04T07:14:03;8.00;99.90
13970;DHT22;7057;49.984;8.404;2023-02-04T07:16:30;8.00;99.90
13970;DHT22;7057;49.984;8.404;2023-02-04T07:18:59;8.00;99.90
13970;DHT22;7057;49.984;8.404;2023-02-04T07:21:26;8.00;99.90
13970;DHT22;7057;49.984;8.404;2023-02-04T07:23:53;8.00;99.90
13970;DHT22;7057;49.984;8.404;2023-02-04T07:26:20;8.00;99.90
13970;DHT22;7057;49.984;8.404;2023-02-04T07:28:48;8.00;99.90
13970;DHT22;7057;49.984;8.404;2023-02-04T07:31:15;8.00;99.90
13970;DHT22;7057;49.984;8.404;2023-02-04T07:33:42;8.00;99.90
13970;DHT22;7057;49.984;8.404;2023-02-04T07:36:10;8.00;99.90
13970;DHT22;7057;49.984;8.404;2023-02-04T07:38:37;8.00;99.90
13970;DHT22;7057;49.984;8.404;2023-02-04T07:41:05;8.00;99.90
13970;DHT22;7057;49.984;8.404;2023-02-04T07:43:32;8.00;99.90
13970;DHT22;7057;49.984;8.404;2023-02-04T07:45:59;7.90;99.90
13970;DHT22;7057;49.984;8.404;2023-02-04T07:48:26;7.90;99.90
13970;DHT22;7057;49.984;8.404;2023-02-04T07:50:53;7.90;99.90
13970;DHT22;7057;49.984;8.404;2023-02-04T07:53:22;8.00;99.90
13970;DHT22;7057;49.984;8.404;2023-02-04T07:55:49;8.00;99.90
13970;DHT22;7057;49.984;8.404;2023-02-04T07:58:16;7.90;99.90
13970;DHT22;7057;49.984;8.404;2023-02-04T08:00:43;8.00;99.90
13970;DHT22;7057;49.984;8.404;2023-02-04T08:03:10;8.00;99.90
13970;DHT22;7057;49.984;8.404;2023-02-04T08:05:37;8.00;99.90
13970;DHT22;7057;49.984;8.404;2023-02-04T08:08:04;8.10;99.90
13970;DHT22;7057;49.984;8.404;2023-02-04T08:10:33;8.20;99.90
13970;DHT22;7057;49.984;8.404;2023-02-04T08:13:00;8.20;99.90
13970;DHT22;7057;49.984;8.404;2023-02-04T08:15:27;8.30;99.90
13970;DHT22;7057;49.984;8.404;2023-02-04T08:17:54;8.30;99.90
13970;DHT22;7057;49.984;8.404;2023-02-04T08:20:22;8.30;99.90
13970;DHT22;7057;49.984;8.404;2023-02-04T08:22:49;8.40;99.90
13970;DHT22;7057;49.984;8.404;2023-02-04T08:25:16;8.40;99.90
13970;DHT22;7057;49.984;8.404;2023-02-04T08:27:45;8.50;99.90
13970;DHT22;7057;49.984;8.404;2023-02-04T08:30:12;8.50;99.90
13970;DHT22;7057;49.984;8.404;2023-02-04T08:32:39;8.60;99.90
13970;DHT22;7057;49.984;8.404;2023-02-04T08:35:07;8.70;99.90
13970;DHT22;7057;49.984;8.404;2023-02-04T08:37:35;8.80;99.90
13970;DHT22;7057;49.984;8.404;2023-02-04T08:40:02;8.90;99.90
13970;DHT22;7057;49.984;8.404;2023-02-04T08:42:29;9.00;99.90
13970;DHT22;7057;49.984;8.404;2023-02-04T08:44:58;9.10;99.90
13970;DHT22;7057;49.984;8.404;2023-02-04T08:47:25;9.20;99.90
13970;DHT22;7057;49.984;8.404;2023-02-04T08:49:52;9.40;99.90
13970;DHT22;7057;49.984;8.404;2023-02-04T08:52:19;9.50;99.90
13970;DHT22;7057;49.984;8.404;2023-02-04T08:54:47;9.50;99.90
13970;DHT22;7057;49.984;8.404;2023-02-04T08:57:14;9.60;99.90
13970;DHT22;7057;49.984;8.404;2023-02-04T08:59:41;9.60;99.90
13970;DHT22;7057;49.984;8.404;2023-02-04T09:02:09;9.50;99.90
13970;DHT22;7057;49.984;8.404;2023-02-04T09:04:37;9.50;99.90
13970;DHT22;7057;49.984;8.404;2023-02-04T09:07:04;9.40;99.90
13970;DHT22;7057;49.984;8.404;2023-02-04T09:09:31;9.40;99.90
13970;DHT22;7057;49.984;8.404;2023-02-04T09:11:58;9.50;99.90
13970;DHT22;7057;49.984;8.404;2023-02-04T09:14:26;9.60;99.90
13970;DHT22;7057;49.984;8.404;2023-02-04T09:16:54;9.60;99.90
13970;DHT22;7057;49.984;8.404;2023-02-04T09:19:22;9.70;99.90
13970;DHT22;7057;49.984;8.404;2023-02-04T09:21:50;9.80;99.90
13970;DHT22;7057;49.984;8.404;2023-02-04T09:24:18;9.80;99.90
13970;DHT22;7057;49.984;8.404;2023-02-04T09:26:48;9.80;99.90
13970;DHT22;7057;49.984;8.404;2023-02-04T09:29:15;9.70;99.90
13970;DHT22;7057;49.984;8.404;2023-02-04T09:31:42;9.60;99.90
13970;DHT22;7057;49.984;8.404;2023-02-04T09:34:09;9.60;99.90
13970;DHT22;7057;49.984;8.404;2023-02-04T09:36:38;9.60;99.90
13970;DHT22;7057;49.984;8.404;2023-02-04T09:39:06;9.60;99.90
13970;DHT22;7057;49.984;8.404;2023-02-04T09:41:35;9.60;99.90
13970;DHT22;7057;49.984;8.404;2023-02-04T09:44:09;9.60;99.90
13970;DHT22;7057;49.984;8.404;2023-02-04T09:46:37;9.60;99.90
13970;DHT22;7057;49.984;8.404;2023-02-04T09:49:06;9.40;99.90
13970;DHT22;7057;49.984;8.404;2023-02-04T09:51:35;9.30;99.90
13970;DHT22;7057;49.984;8.404;2023-02-04T09:54:06;9.40;99.90
13970;DHT22;7057;49.984;8.404;2023-02-04T09:56:35;9.30;99.90
13970;DHT22;7057;49.984;8.404;2023-02-04T09:59:03;9.20;99.90
13970;DHT22;7057;49.984;8.404;2023-02-04T10:01:31;9.20;99.90
13970;DHT22;7057;49.984;8.404;2023-02-04T10:04:00;9.30;99.90
13970;DHT22;7057;49.984;8.404;2023-02-04T10:06:27;9.30;99.90
13970;DHT22;7057;49.984;8.404;2023-02-04T10:08:55;9.40;99.90
13970;DHT22;7057;49.984;8.404;2023-02-04T10:11:25;9.40;99.90
13970;DHT22;7057;49.984;8.404;2023-02-04T10:13:54;9.30;99.90
13970;DHT22;7057;49.984;8.404;2023-02-04T10:16:23;9.30;99.90
13970;DHT22;7057;49.984;8.404;2023-02-04T10:18:55;9.30;99.90
13970;DHT22;7057;49.984;8.404;2023-02-04T10:21:25;9.40;99.90
13970;DHT22;7057;49.984;8.404;2023-02-04T10:23:54;9.40;99.90
13970;DHT22;7057;49.984;8.404;2023-02-04T10:26:24;9.50;99.90
13970;DHT22;7057;49.984;8.404;2023-02-04T10:28:58;9.60;99.90
13970;DHT22;7057;49.984;8.404;2023-02-04T10:31:30;9.60;99.90
13970;DHT22;7057;49.984;8.404;2023-02-04T10:34:13;9.50;99.90
13970;DHT22;7057;49.984;8.404;2023-02-04T10:36:43;9.50;99.90
13970;DHT22;7057;49.984;8.404;2023-02-04T10:39:13;9.50;99.90
13970;DHT22;7057;49.984;8.404;2023-02-04T10:41:47;9.30;99.90
13970;DHT22;7057;49.984;8.404;2023-02-04T10:44:16;9.30;99.90
13970;DHT22;7057;49.984;8.404;2023-02-04T10:46:43;9.40;99.90
13970;DHT22;7057;49.984;8.404;2023-02-04T10:49:17;9.50;99.90
13970;DHT22;7057;49.984;8.404;2023-02-04T10:51:45;9.60;99.90
13970;DHT22;7057;49.984;8.404;2023-02-04T10:54:13;9.70;99.90
13970;DHT22;7057;49.984;8.404;2023-02-04T10:57:07;9.80;99.90
13970;DHT22;7057;49.984;8.404;2023-02-04T10:59:37;9.90;99.90
13970;DHT22;7057;49.984;8.404;2023-02-04T11:05:14;10.20;99.90
13970;DHT22;7057;49.984;8.404;2023-02-04T11:07:42;10.40;99.90
13970;DHT22;7057;49.984;8.404;2023-02-04T11:10:13;10.60;99.90
13970;DHT22;7057;49.984;8.404;2023-02-04T11:12:43;10.70;99.90
13970;DHT22;7057;49.984;8.404;2023-02-04T11:15:40;10.70;99.90
13970;DHT22;7057;49.984;8.404;2023-02-04T11:18:11;10.70;99.90
13970;DHT22;7057;49.984;8.404;2023-02-04T11:20:38;10.80;99.90
13970;DHT22;7057;49.984;8.404;2023-02-04T11:23:33;10.80;99.90
13970;DHT22;7057;49.984;8.404;2023-02-04T11:26:03;10.70;99.90
13970;DHT22;7057;49.984;8.404;2023-02-04T11:28:47;10.60;99.90
13970;DHT22;7057;49.984;8.404;2023-02-04T11:31:27;10.60;99.90
13970;DHT22;7057;49.984;8.404;2023-02-04T11:34:23;10.40;99.90
13970;DHT22;7057;49.984;8.404;2023-02-04T11:37:12;10.30;99.90
13970;DHT22;7057;49.984;8.404;2023-02-04T11:39:40;10.30;99.90
13970;DHT22;7057;49.984;8.404;2023-02-04T11:42:17;10.40;99.90
13970;DHT22;7057;49.984;8.404;2023-02-04T11:44:50;10.50;99.90
13970;DHT22;7057;49.984;8.404;2023-02-04T11:47:18;10.50;99.90
13970;DHT22;7057;49.984;8.404;2023-02-04T11:49:53;10.40;99.90
13970;DHT22;7057;49.984;8.404;2023-02-04T11:52:21;10.50;99.90
13970;DHT22;7057;49.984;8.404;2023-02-04T11:54:55;10.50;99.90
13970;DHT22;7057;49.984;8.404;2023-02-04T11:57:23;10.40;99.90
13970;DHT22;7057;49.984;8.404;2023-02-04T11:59:52;10.40;99.90
13970;DHT22;7057;49.984;8.404;2023-02-04T12:02:21;10.30;99.90
13970;DHT22;7057;49.984;8.404;2023-02-04T12:04:54;10.30;99.90
13970;DHT22;7057;49.984;8.404;2023-02-04T12:07:26;10.30;99.90
13970;DHT22;7057;49.984;8.404;2023-02-04T12:09:54;10.20;99.90
13970;DHT22;7057;49.984;8.404;2023-02-04T12:12:26;10.00;99.90
13970;DHT22;7057;49.984;8.404;2023-02-04T12:15:01;9.90;99.90
13970;DHT22;7057;49.984;8.404;2023-02-04T12:17:29;9.70;99.90
13970;DHT22;7057;49.984;8.404;2023-02-04T12:19:56;9.80;99.90
13970;DHT22;7057;49.984;8.404;2023-02-04T12:22:23;9.70;99.90
13970;DHT22;7057;49.984;8.404;2023-02-04T12:24:51;9.70;99.90
13970;DHT22;7057;49.984;8.404;2023-02-04T12:27:18;9.60;99.90
13970;DHT22;7057;49.984;8.404;2023-02-04T12:29:45;9.60;99.90
13970;DHT22;7057;49.984;8.404;2023-02-04T12:32:14;9.60;99.90
13970;DHT22;7057;49.984;8.404;2023-02-04T12:34:41;9.70;99.90
13970;DHT22;7057;49.984;8.404;2023-02-04T12:37:08;9.80;99.90
13970;DHT22;7057;49.984;8.404;2023-02-04T12:39:35;10.10;99.90
13970;DHT22;7057;49.984;8.404;2023-02-04T12:42:02;10.20;99.90
13970;DHT22;7057;49.984;8.404;2023-02-04T12:44:30;10.30;99.90
13970;DHT22;7057;49.984;8.404;2023-02-04T12:46:57;10.50;99.90
13970;DHT22;7057;49.984;8.404;2023-02-04T12:49:26;10.70;99.90
13970;DHT22;7057;49.984;8.404;2023-02-04T12:51:53;10.80;99.90
13970;DHT22;7057;49.984;8.404;2023-02-04T12:54:24;10.90;99.90
13970;DHT22;7057;49.984;8.404;2023-02-04T12:56:51;11.00;99.90
13970;DHT22;7057;49.984;8.404;2023-02-04T12:59:18;11.10;99.90
13970;DHT22;7057;49.984;8.404;2023-02-04T13:01:45;11.30;99.90
13970;DHT22;7057;49.984;8.404;2023-02-04T13:04:12;11.30;99.90
13970;DHT22;7057;49.984;8.404;2023-02-04T13:06:41;11.40;99.90
13970;DHT22;7057;49.984;8.404;2023-02-04T13:09:08;11.40;99.90
13970;DHT22;7057;49.984;8.404;2023-02-04T13:11:35;11.40;99.90
13970;DHT22;7057;49.984;8.404;2023-02-04T13:14:02;11.30;99.90
13970;DHT22;7057;49.984;8.404;2023-02-04T13:16:29;11.20;99.90
13970;DHT22;7057;49.984;8.404;2023-02-04T13:18:57;11.20;99.90
13970;DHT22;7057;49.984;8.404;2023-02-04T13:21:24;11.30;99.90
13970;DHT22;7057;49.984;8.404;2023-02-04T13:23:52;11.40;99.90
13970;DHT22;7057;49.984;8.404;2023-02-04T13:26:19;11.50;99.90
13970;DHT22;7057;49.984;8.404;2023-02-04T13:28:46;11.30;99.90
13970;DHT22;7057;49.984;8.404;2023-02-04T13:31:14;10.90;99.90
13970;DHT22;7057;49.984;8.404;2023-02-04T13:33:41;10.70;99.90
13970;DHT22;7057;49.984;8.404;2023-02-04T13:36:08;10.30;99.90
13970;DHT22;7057;49.984;8.404;2023-02-04T13:38:35;10.10;99.90
13970;DHT22;7057;49.984;8.404;2023-02-04T13:41:04;10.00;99.90
13970;DHT22;7057;49.984;8.404;2023-02-04T13:43:31;9.90;99.90
13970;DHT22;7057;49.984;8.404;2023-02-04T13:45:58;9.80;99.90
13970;DHT22;7057;49.984;8.404;2023-02-04T13:48:27;9.60;99.90
13970;DHT22;7057;49.984;8.404;2023-02-04T13:50:54;9.50;99.90
13970;DHT22;7057;49.984;8.404;2023-02-04T13:53:22;9.40;99.90
13970;DHT22;7057;49.984;8.404;2023-02-04T13:55:49;9.40;99.90
13970;DHT22;7057;49.984;8.404;2023-02-04T13:58:18;9.30;99.90
13970;DHT22;7057;49.984;8.404;2023-02-04T14:00:45;9.20;99.90
13970;DHT22;7057;49.984;8.404;2023-02-04T14:03:12;9.20;99.90
13970;DHT22;7057;49.984;8.404;2023-02-04T14:05:39;9.20;99.90
13970;DHT22;7057;49.984;8.404;2023-02-04T14:08:06;9.20;99.90
13970;DHT22;7057;49.984;8.404;2023-02-04T14:10:33;9.30;99.90
13970;DHT22;7057;49.984;8.404;2023-02-04T14:13:00;9.30;99.90
13970;DHT22;7057;49.984;8.404;2023-02-04T14:15:29;9.40;99.90
13970;DHT22;7057;49.984;8.404;2023-02-04T14:17:56;9.40;99.90
13970;DHT22;7057;49.984;8.404;2023-02-04T14:20:23;9.50;99.90
13970;DHT22;7057;49.984;8.404;2023-02-04T14:22:50;9.60;99.90
13970;DHT22;7057;49.984;8.404;2023-02-04T14:25:18;9.70;99.90
13970;DHT22;7057;49.984;8.404;2023-02-04T14:27:45;9.80;99.90
13970;DHT22;7057;49.984;8.404;2023-02-04T14:30:16;9.80;99.90
13970;DHT22;7057;49.984;8.404;2023-02-04T14:32:45;9.80;99.90
13970;DHT22;7057;49.984;8.404;2023-02-04T14:35:13;9.80;99.90
13970;DHT22;7057;49.984;8.404;2023-02-04T14:37:41;9.80;99.90
13970;DHT22;7057;49.984;8.404;2023-02-04T14:40:10;9.60;99.90
13970;DHT22;7057;49.984;8.404;2023-02-04T14:42:37;9.60;99.90
13970;DHT22;7057;49.984;8.404;2023-02-04T14:45:05;9.60;99.90
13970;DHT22;7057;49.984;8.404;2023-02-04T14:47:33;9.70;99.90
13970;DHT22;7057;49.984;8.404;2023-02-04T14:50:03;9.80;99.90
13970;DHT22;7057;49.984;8.404;2023-02-04T14:52:30;9.80;99.90
13970;DHT22;7057;49.984;8.404;2023-02-04T14:54:57;9.80;99.90
13970;DHT22;7057;49.984;8.404;2023-02-04T14:57:25;9.80;99.90
13970;DHT22;7057;49.984;8.404;2023-02-04T14:59:52;9.80;99.90
13970;DHT22;7057;49.984;8.404;2023-02-04T15:02:19;9.80;99.90
13970;DHT22;7057;49.984;8.404;2023-02-04T15:04:47;9.80;99.90
13970;DHT22;7057;49.984;8.404;2023-02-04T15:07:16;9.80;99.90
13970;DHT22;7057;49.984;8.404;2023-02-04T15:09:43;9.80;99.90
13970;DHT22;7057;49.984;8.404;2023-02-04T15:12:10;9.80;99.90
13970;DHT22;7057;49.984;8.404;2023-02-04T15:14:37;9.90;99.90
13970;DHT22;7057;49.984;8.404;2023-02-04T15:17:04;9.90;99.90
13970;DHT22;7057;49.984;8.404;2023-02-04T15:19:32;9.90;99.90
13970;DHT22;7057;49.984;8.404;2023-02-04T15:21:59;9.90;99.90
13970;DHT22;7057;49.984;8.404;2023-02-04T15:24:28;9.90;99.90
13970;DHT22;7057;49.984;8.404;2023-02-04T15:26:55;9.80;99.90
13970;DHT22;7057;49.984;8.404;2023-02-04T15:29:22;9.80;99.90
13970;DHT22;7057;49.984;8.404;2023-02-04T15:31:49;9.80;99.90
13970;DHT22;7057;49.984;8.404;2023-02-04T15:34:16;9.70;99.90
13970;DHT22;7057;49.984;8.404;2023-02-04T15:36:43;9.70;99.90
13970;DHT22;7057;49.984;8.404;2023-02-04T15:39:11;9.70;99.90
13970;DHT22;7057;49.984;8.404;2023-02-04T15:41:39;9.70;99.90
13970;DHT22;7057;49.984;8.404;2023-02-04T15:44:07;9.70;99.90
13970;DHT22;7057;49.984;8.404;2023-02-04T15:46:34;9.70;99.90
13970;DHT22;7057;49.984;8.404;2023-02-04T15:49:01;9.60;99.90
13970;DHT22;7057;49.984;8.404;2023-02-04T15:51:29;9.60;99.90
13970;DHT22;7057;49.984;8.404;2023-02-04T15:53:56;9.50;99.90
13970;DHT22;7057;49.984;8.404;2023-02-04T15:56:23;9.40;99.90
13970;DHT22;7057;49.984;8.404;2023-02-04T15:58:52;9.40;99.90
13970;DHT22;7057;49.984;8.404;2023-02-04T16:01:19;9.30;99.90
13970;DHT22;7057;49.984;8.404;2023-02-04T16:03:46;9.30;99.90
13970;DHT22;7057;49.984;8.404;2023-02-04T16:06:15;9.20;99.90
13970;DHT22;7057;49.984;8.404;2023-02-04T16:08:42;9.20;99.90